sensor_id;sensor_type;location;lat;lon;timestamp;pressure;altitude;pressure_sealevel;temperature;humidity
31403;BME280;18039;52.188;21.024;2023-05-08T00:00:58;78344.75;;;-141.45;96.34
31403;BME280;18039;52.188;21.024;2023-05-08T00:03:25;78348.81;;;-141.45;96.51
31403;BME280;18039;52.188;21.024;2023-05-08T00:05:53;78348.81;;;-141.45;96.97
31403;BME280;18039;52.188;21.024;2023-05-08T00:08:23;78352.88;;;-141.45;96.91
31403;BME280;18039;52.188;21.024;2023-05-08T00:10:50;78348.81;;;-141.45;97.16
31403;BME280;18039;52.188;21.024;2023-05-08T00:13:17;78356.94;;;-141.45;96.94
31403;BME280;18039;52.188;21.024;2023-05-08T00:15:45;78360.97;;;-141.45;97.51
31403;BME280;18039;52.188;21.024;2023-05-08T00:18:12;78354.91;;;-141.45;97.46
31403;BME280;18039;52.188;21.024;2023-05-08T00:20:39;78356.94;;;-141.45;97.49
31403;BME280;18039;52.188;21.024;2023-05-08T00:23:07;78365.03;;;-141.45;97.46
31403;BME280;18039;52.188;21.024;2023-05-08T00:25:34;78369.09;;;-141.45;97.49
31403;BME280;18039;52.188;21.024;2023-05-08T00:28:02;78375.19;;;-141.45;97.78
31403;BME280;18039;52.188;21.024;2023-05-08T00:30:29;78379.22;;;-141.45;97.74
31403;BME280;18039;52.188;21.024;2023-05-08T00:32:57;78385.31;;;-141.45;98.04
31403;BME280;18039;52.188;21.024;2023-05-08T00:35:23;78385.31;;;-141.45;97.89
31403;BME280;18039;52.188;21.024;2023-05-08T00:37:51;78385.31;;;-141.45;98.02
31403;BME280;18039;52.188;21.024;2023-05-08T00:40:18;78385.31;;;-141.45;97.59
31403;BME280;18039;52.188;21.024;2023-05-08T00:42:46;78385.31;;;-141.45;97.83
31403;BME280;18039;52.188;21.024;2023-05-08T00:45:12;78385.31;;;-141.45;98.04
31403;BME280;18039;52.188;21.024;2023-05-08T00:47:41;78395.47;;;-141.45;98.00
31403;BME280;18039;52.188;21.024;2023-05-08T00:50:12;78397.50;;;-141.45;98.04
31403;BME280;18039;52.188;21.024;2023-05-08T00:52:40;78401.53;;;-141.45;97.95
31403;BME280;18039;52.188;21.024;2023-05-08T00:55:07;78397.50;;;-141.45;98.15
31403;BME280;18039;52.188;21.024;2023-05-08T00:57:34;78409.66;;;-141.45;97.83
31403;BME280;18039;52.188;21.024;2023-05-08T01:00:03;78413.72;;;-141.45;97.85
31403;BME280;18039;52.188;21.024;2023-05-08T01:02:31;78413.72;;;-141.45;98.14
31403;BME280;18039;52.188;21.024;2023-05-08T01:05:00;78425.88;;;-141.45;98.20
31403;BME280;18039;52.188;21.024;2023-05-08T01:07:28;78434.00;;;-141.45;98.01
31403;BME280;18039;52.188;21.024;2023-05-08T01:09:55;78434.00;;;-141.45;98.11
31403;BME280;18039;52.188;21.024;2023-05-08T01:12:46;78442.09;;;-141.45;98.25
31403;BME280;18039;52.188;21.024;2023-05-08T01:15:22;78442.09;;;-141.45;98.35
31403;BME280;18039;52.188;21.024;2023-05-08T01:23:23;78456.31;;;-141.45;98.60
31403;BME280;18039;52.188;21.024;2023-05-08T01:26:04;78458.34;;;-141.45;98.17
31403;BME280;18039;52.188;21.024;2023-05-08T01:37:29;78466.44;;;-141.45;99.12
31403;BME280;18039;52.188;21.024;2023-05-08T01:40:08;78468.47;;;-141.45;98.60
31403;BME280;18039;52.188;21.024;2023-05-08T01:43:01;78466.44;;;-141.45;98.71
31403;BME280;18039;52.188;21.024;2023-05-08T01:45:38;78466.44;;;-141.45;98.63
31403;BME280;18039;52.188;21.024;2023-05-08T01:48:16;78470.50;;;-141.45;98.33
31403;BME280;18039;52.188;21.024;2023-05-08T01:50:48;78478.63;;;-141.45;98.48
31403;BME280;18039;52.188;21.024;2023-05-08T01:53:22;78476.59;;;-141.45;98.33
31403;BME280;18039;52.188;21.024;2023-05-08T01:55:52;78482.66;;;-141.45;98.44
31403;BME280;18039;52.188;21.024;2023-05-08T01:58:22;78482.66;;;-141.45;98.58
31403;BME280;18039;52.188;21.024;2023-05-08T02:00:50;78480.66;;;-141.45;98.90
31403;BME280;18039;52.188;21.024;2023-05-08T02:03:19;78490.78;;;-141.45;98.70
31403;BME280;18039;52.188;21.024;2023-05-08T02:05:49;78490.78;;;-141.45;98.76
31403;BME280;18039;52.188;21.024;2023-05-08T02:08:20;78490.78;;;-141.45;98.74
31403;BME280;18039;52.188;21.024;2023-05-08T02:10:49;78494.84;;;-141.45;98.59
31403;BME280;18039;52.188;21.024;2023-05-08T02:13:18;78498.91;;;-141.45;98.93
31403;BME280;18039;52.188;21.024;2023-05-08T02:15:48;78502.94;;;-141.45;98.79
31403;BME280;18039;52.188;21.024;2023-05-08T02:18:19;78502.94;;;-141.45;98.95
31403;BME280;18039;52.188;21.024;2023-05-08T02:20:49;78507.00;;;-141.45;99.03
31403;BME280;18039;52.188;21.024;2023-05-08T02:23:19;78502.94;;;-141.45;99.29
31403;BME280;18039;52.188;21.024;2023-05-08T02:25:47;78502.94;;;-141.45;98.86
31403;BME280;18039;52.188;21.024;2023-05-08T02:28:17;78504.97;;;-141.45;98.90
31403;BME280;18039;52.188;21.024;2023-05-08T02:30:45;78507.00;;;-141.45;99.20
31403;BME280;18039;52.188;21.024;2023-05-08T02:33:14;78509.03;;;-141.45;99.61
31403;BME280;18039;52.188;21.024;2023-05-08T02:35:43;78507.00;;;-141.45;99.17
31403;BME280;18039;52.188;21.024;2023-05-08T02:38:13;78511.06;;;-141.45;99.60
31403;BME280;18039;52.188;21.024;2023-05-08T02:40:46;78511.06;;;-141.45;99.47
31403;BME280;18039;52.188;21.024;2023-05-08T02:43:14;78517.16;;;-141.45;99.22
31403;BME280;18039;52.188;21.024;2023-05-08T02:45:48;78517.16;;;-141.45;98.87
31403;BME280;18039;52.188;21.024;2023-05-08T02:48:46;78519.19;;;-141.45;99.59
31403;BME280;18039;52.188;21.024;2023-05-08T02:51:21;78521.22;;;-141.45;99.47
31403;BME280;18039;52.188;21.024;2023-05-08T02:54:13;78519.19;;;-141.45;99.59
31403;BME280;18039;52.188;21.024;2023-05-08T02:59:19;78519.19;;;-141.45;99.43
31403;BME280;18039;52.188;21.024;2023-05-08T03:01:58;78513.09;;;-141.45;99.38
31403;BME280;18039;52.188;21.024;2023-05-08T03:04:33;78511.06;;;-141.45;99.62
31403;BME280;18039;52.188;21.024;2023-05-08T03:07:03;78507.00;;;-141.45;100.00
31403;BME280;18039;52.188;21.024;2023-05-08T03:09:38;78504.97;;;-141.45;100.00
31403;BME280;18039;52.188;21.024;2023-05-08T03:12:14;78502.94;;;-141.45;99.99
31403;BME280;18039;52.188;21.024;2023-05-08T03:14:48;78500.94;;;-141.45;99.91
31403;BME280;18039;52.188;21.024;2023-05-08T03:17:20;78504.97;;;-141.45;100.00
31403;BME280;18039;52.188;21.024;2023-05-08T03:19:54;78507.00;;;-141.45;100.00
31403;BME280;18039;52.188;21.024;2023-05-08T03:22:24;78504.97;;;-141.45;99.85
31403;BME280;18039;52.188;21.024;2023-05-08T03:24:53;78502.94;;;-141.45;100.00
31403;BME280;18039;52.188;21.024;2023-05-08T03:27:24;78507.00;;;-141.45;99.87
31403;BME280;18039;52.188;21.024;2023-05-08T03:29:54;78507.00;;;-141.45;99.91
31403;BME280;18039;52.188;21.024;2023-05-08T03:32:25;78509.03;;;-141.45;99.95
31403;BME280;18039;52.188;21.024;2023-05-08T03:34:54;78507.00;;;-141.45;100.00
31403;BME280;18039;52.188;21.024;2023-05-08T03:37:26;78507.00;;;-141.45;100.00
31403;BME280;18039;52.188;21.024;2023-05-08T03:39:54;78502.94;;;-141.45;99.93
31403;BME280;18039;52.188;21.024;2023-05-08T03:42:23;78492.81;;;-141.45;99.72
31403;BME280;18039;52.188;21.024;2023-05-08T03:44:51;78494.84;;;-141.45;100.00
31403;BME280;18039;52.188;21.024;2023-05-08T03:47:23;78482.66;;;-141.45;99.93
31403;BME280;18039;52.188;21.024;2023-05-08T03:49:53;78482.66;;;-141.45;99.71
31403;BME280;18039;52.188;21.024;2023-05-08T03:52:20;78470.50;;;-141.45;99.97
31403;BME280;18039;52.188;21.024;2023-05-08T03:54:47;78464.41;;;-141.45;99.66
31403;BME280;18039;52.188;21.024;2023-05-08T03:57:15;78454.28;;;-141.45;99.55
31403;BME280;18039;52.188;21.024;2023-05-08T04:00:02;78446.16;;;-141.45;99.41
31403;BME280;18039;52.188;21.024;2023-05-08T04:05:52;78421.81;;;-141.45;99.08
31403;BME280;18039;52.188;21.024;2023-05-08T04:08:31;78413.72;;;-141.45;98.76
31403;BME280;18039;52.188;21.024;2023-05-08T04:11:26;78395.47;;;-141.45;98.38
31403;BME280;18039;52.188;21.024;2023-05-08T04:14:03;78379.22;;;-141.45;98.39
31403;BME280;18039;52.188;21.024;2023-05-08T04:16:39;78369.09;;;-141.45;98.07
31403;BME280;18039;52.188;21.024;2023-05-08T04:19:17;78336.66;;;-141.45;98.36
31403;BME280;18039;52.188;21.024;2023-05-08T04:21:47;78316.34;;;-141.45;97.63
31403;BME280;18039;52.188;21.024;2023-05-08T04:24:18;78292.03;;;-141.45;96.33
31403;BME280;18039;52.188;21.024;2023-05-08T04:26:47;78271.75;;;-141.45;96.18
31403;BME280;18039;52.188;21.024;2023-05-08T04:29:16;78251.47;;;-141.45;94.71
31403;BME280;18039;52.188;21.024;2023-05-08T04:31:44;78210.91;;;-141.45;94.59
31403;BME280;18039;52.188;21.024;2023-05-08T04:34:12;78178.44;;;-141.45;93.51
31403;BME280;18039;52.188;21.024;2023-05-08T04:36:40;78158.16;;;-141.45;91.78
31403;BME280;18039;52.188;21.024;2023-05-08T04:39:07;78146.00;;;-141.45;91.41
31403;BME280;18039;52.188;21.024;2023-05-08T04:41:34;78113.56;;;-141.45;90.87
31403;BME280;18039;52.188;21.024;2023-05-08T04:44:03;78093.28;;;-141.45;89.01
31403;BME280;18039;52.188;21.024;2023-05-08T04:46:31;78073.00;;;-141.45;87.65
31403;BME280;18039;52.188;21.024;2023-05-08T04:48:59;78052.72;;;-141.45;87.71
31403;BME280;18039;52.188;21.024;2023-05-08T04:51:28;78008.09;;;-141.45;88.57
31403;BME280;18039;52.188;21.024;2023-05-08T04:53:55;77975.66;;;-141.45;86.40
31403;BME280;18039;52.188;21.024;2023-05-08T04:56:22;77935.09;;;-141.45;82.83
31403;BME280;18039;52.188;21.024;2023-05-08T04:58:49;77882.38;;;-141.45;83.74
31403;BME280;18039;52.188;21.024;2023-05-08T05:01:17;77851.97;;;-141.45;79.19
31403;BME280;18039;52.188;21.024;2023-05-08T05:03:45;77819.50;;;-141.45;76.49
31403;BME280;18039;52.188;21.024;2023-05-08T05:06:12;77813.44;;;-141.45;75.10
31403;BME280;18039;52.188;21.024;2023-05-08T05:08:39;77825.59;;;-141.45;73.38
31403;BME280;18039;52.188;21.024;2023-05-08T05:11:07;77841.81;;;-141.45;75.03
31403;BME280;18039;52.188;21.024;2023-05-08T05:13:34;77888.47;;;-141.45;73.18
31403;BME280;18039;52.188;21.024;2023-05-08T05:16:01;77910.75;;;-141.45;74.90
31403;BME280;18039;52.188;21.024;2023-05-08T05:18:29;77931.03;;;-141.45;74.28
31403;BME280;18039;52.188;21.024;2023-05-08T05:20:57;77937.13;;;-141.45;75.66
31403;BME280;18039;52.188;21.024;2023-05-08T05:23:27;77943.22;;;-141.45;75.62
31403;BME280;18039;52.188;21.024;2023-05-08T05:25:54;77951.31;;;-141.45;75.25
31403;BME280;18039;52.188;21.024;2023-05-08T05:28:21;77963.50;;;-141.45;74.50
31403;BME280;18039;52.188;21.024;2023-05-08T05:30:48;77977.69;;;-141.45;74.25
31403;BME280;18039;52.188;21.024;2023-05-08T05:33:16;77975.66;;;-141.45;75.88
31403;BME280;18039;52.188;21.024;2023-05-08T05:35:44;77971.59;;;-141.45;75.37
31403;BME280;18039;52.188;21.024;2023-05-08T05:38:11;77979.72;;;-141.45;75.48
31403;BME280;18039;52.188;21.024;2023-05-08T05:40:38;77971.59;;;-141.45;75.47
31403;BME280;18039;52.188;21.024;2023-05-08T05:43:05;77971.59;;;-141.45;75.60
31403;BME280;18039;52.188;21.024;2023-05-08T05:45:33;77967.53;;;-141.45;75.03
31403;BME280;18039;52.188;21.024;2023-05-08T05:48:00;77959.44;;;-141.45;75.05
31403;BME280;18039;52.188;21.024;2023-05-08T05:50:29;77947.25;;;-141.45;74.90
31403;BME280;18039;52.188;21.024;2023-05-08T05:52:58;77937.13;;;-141.45;74.11
31403;BME280;18039;52.188;21.024;2023-05-08T05:55:26;77926.97;;;-141.45;73.55
31403;BME280;18039;52.188;21.024;2023-05-08T05:57:53;77922.94;;;-141.45;72.35
31403;BME280;18039;52.188;21.024;2023-05-08T06:00:21;77918.88;;;-141.45;71.17
31403;BME280;18039;52.188;21.024;2023-05-08T06:02:53;77912.78;;;-141.45;71.32
31403;BME280;18039;52.188;21.024;2023-05-08T06:05:21;77906.72;;;-141.45;71.34
31403;BME280;18039;52.188;21.024;2023-05-08T06:07:50;77904.69;;;-141.45;68.99
31403;BME280;18039;52.188;21.024;2023-05-08T06:10:17;77902.66;;;-141.45;69.22
31403;BME280;18039;52.188;21.024;2023-05-08T06:12:45;77902.66;;;-141.45;69.33
31403;BME280;18039;52.188;21.024;2023-05-08T06:15:13;77896.56;;;-141.45;69.90
31403;BME280;18039;52.188;21.024;2023-05-08T06:17:43;77884.41;;;-141.45;70.18
31403;BME280;18039;52.188;21.024;2023-05-08T06:20:12;77874.25;;;-141.45;70.26
31403;BME280;18039;52.188;21.024;2023-05-08T06:22:39;77868.19;;;-141.45;69.46
31403;BME280;18039;52.188;21.024;2023-05-08T06:25:07;77876.28;;;-141.45;67.53
31403;BME280;18039;52.188;21.024;2023-05-08T06:27:36;77870.22;;;-141.45;68.54
31403;BME280;18039;52.188;21.024;2023-05-08T06:30:04;77870.22;;;-141.45;67.55
31403;BME280;18039;52.188;21.024;2023-05-08T06:32:34;77858.03;;;-141.45;68.29
31403;BME280;18039;52.188;21.024;2023-05-08T06:35:02;77845.88;;;-141.45;68.83
31403;BME280;18039;52.188;21.024;2023-05-08T06:37:29;77849.94;;;-141.45;67.44
31403;BME280;18039;52.188;21.024;2023-05-08T06:39:57;77843.84;;;-141.45;67.84
31403;BME280;18039;52.188;21.024;2023-05-08T06:42:37;77845.88;;;-141.45;67.30
31403;BME280;18039;52.188;21.024;2023-05-08T06:45:09;77841.81;;;-141.45;68.45
31403;BME280;18039;52.188;21.024;2023-05-08T06:47:36;77833.69;;;-141.45;66.73
31403;BME280;18039;52.188;21.024;2023-05-08T06:50:04;77809.38;;;-141.45;66.78
31403;BME280;18039;52.188;21.024;2023-05-08T06:52:32;77801.25;;;-141.45;66.14
31403;BME280;18039;52.188;21.024;2023-05-08T06:54:59;77791.13;;;-141.45;65.70
31403;BME280;18039;52.188;21.024;2023-05-08T06:57:27;77789.09;;;-141.45;65.06
31403;BME280;18039;52.188;21.024;2023-05-08T06:59:56;77783.00;;;-141.45;63.93
31403;BME280;18039;52.188;21.024;2023-05-08T07:02:23;77780.97;;;-141.45;63.85
31403;BME280;18039;52.188;21.024;2023-05-08T07:04:50;77768.81;;;-141.45;64.36
31403;BME280;18039;52.188;21.024;2023-05-08T07:07:17;77772.88;;;-141.45;63.81
31403;BME280;18039;52.188;21.024;2023-05-08T07:09:45;77766.78;;;-141.45;63.60
31403;BME280;18039;52.188;21.024;2023-05-08T07:12:12;77768.81;;;-141.45;63.45
31403;BME280;18039;52.188;21.024;2023-05-08T07:14:40;77752.59;;;-141.45;63.41
31403;BME280;18039;52.188;21.024;2023-05-08T07:17:08;77744.47;;;-141.45;63.43
31403;BME280;18039;52.188;21.024;2023-05-08T07:19:36;77740.44;;;-141.45;63.08
31403;BME280;18039;52.188;21.024;2023-05-08T07:22:05;77732.31;;;-141.45;62.29
31403;BME280;18039;52.188;21.024;2023-05-08T07:24:33;77724.19;;;-141.45;60.65
31403;BME280;18039;52.188;21.024;2023-05-08T07:27:01;77718.13;;;-141.45;59.87
31403;BME280;18039;52.188;21.024;2023-05-08T07:29:30;77703.94;;;-141.45;61.24
31403;BME280;18039;52.188;21.024;2023-05-08T07:31:57;77683.66;;;-141.45;61.52
31403;BME280;18039;52.188;21.024;2023-05-08T07:34:25;77675.53;;;-141.45;61.62
31403;BME280;18039;52.188;21.024;2023-05-08T07:36:52;77659.31;;;-141.45;60.38
31403;BME280;18039;52.188;21.024;2023-05-08T07:39:20;77655.25;;;-141.45;59.29
31403;BME280;18039;52.188;21.024;2023-05-08T07:41:48;77651.19;;;-141.45;59.14
31403;BME280;18039;52.188;21.024;2023-05-08T07:44:16;77639.03;;;-141.45;59.59
31403;BME280;18039;52.188;21.024;2023-05-08T07:46:43;77628.91;;;-141.45;59.22
31403;BME280;18039;52.188;21.024;2023-05-08T07:49:11;77614.69;;;-141.45;58.42
31403;BME280;18039;52.188;21.024;2023-05-08T07:51:38;77622.81;;;-141.45;56.62
31403;BME280;18039;52.188;21.024;2023-05-08T07:54:07;77610.66;;;-141.45;56.92
31403;BME280;18039;52.188;21.024;2023-05-08T07:56:34;77600.50;;;-141.45;55.72
31403;BME280;18039;52.188;21.024;2023-05-08T07:59:02;77594.44;;;-141.45;56.44
31403;BME280;18039;52.188;21.024;2023-05-08T08:01:29;77557.94;;;-141.45;56.22
31403;BME280;18039;52.188;21.024;2023-05-08T08:03:57;77537.66;;;-141.45;55.98
31403;BME280;18039;52.188;21.024;2023-05-08T08:06:25;77521.44;;;-141.45;55.77
31403;BME280;18039;52.188;21.024;2023-05-08T08:08:52;77493.03;;;-141.45;54.84
31403;BME280;18039;52.188;21.024;2023-05-08T08:11:19;77472.78;;;-141.45;53.50
31403;BME280;18039;52.188;21.024;2023-05-08T08:13:47;77476.81;;;-141.45;53.11
31403;BME280;18039;52.188;21.024;2023-05-08T08:16:13;77493.03;;;-141.45;52.89
31403;BME280;18039;52.188;21.024;2023-05-08T08:18:41;77480.88;;;-141.45;53.48
31403;BME280;18039;52.188;21.024;2023-05-08T08:21:08;77484.94;;;-141.45;53.11
31403;BME280;18039;52.188;21.024;2023-05-08T08:23:37;77484.94;;;-141.45;53.19
31403;BME280;18039;52.188;21.024;2023-05-08T08:26:04;77474.78;;;-141.45;53.43
31403;BME280;18039;52.188;21.024;2023-05-08T08:28:33;77456.53;;;-141.45;52.87
31403;BME280;18039;52.188;21.024;2023-05-08T08:31:00;77432.22;;;-141.45;51.84
31403;BME280;18039;52.188;21.024;2023-05-08T08:33:29;77424.09;;;-141.45;51.62
31403;BME280;18039;52.188;21.024;2023-05-08T08:35:57;77413.97;;;-141.45;50.79
31403;BME280;18039;52.188;21.024;2023-05-08T08:38:24;77407.88;;;-141.45;50.84
31403;BME280;18039;52.188;21.024;2023-05-08T08:40:52;77411.94;;;-141.45;50.85
31403;BME280;18039;52.188;21.024;2023-05-08T08:43:20;77399.78;;;-141.45;51.28
31403;BME280;18039;52.188;21.024;2023-05-08T08:45:47;77383.56;;;-141.45;50.59
31403;BME280;18039;52.188;21.024;2023-05-08T08:48:14;77377.47;;;-141.45;48.48
31403;BME280;18039;52.188;21.024;2023-05-08T08:50:45;77379.50;;;-141.45;48.78
31403;BME280;18039;52.188;21.024;2023-05-08T08:53:30;77387.59;;;-141.45;49.47
31403;BME280;18039;52.188;21.024;2023-05-08T08:56:00;77391.66;;;-141.45;49.81
31403;BME280;18039;52.188;21.024;2023-05-08T08:58:46;77391.66;;;-141.45;47.34
31403;BME280;18039;52.188;21.024;2023-05-08T09:01:18;77395.72;;;-141.45;47.50
31403;BME280;18039;52.188;21.024;2023-05-08T09:03:47;77395.72;;;-141.45;47.44
31403;BME280;18039;52.188;21.024;2023-05-08T09:06:16;77407.88;;;-141.45;48.46
31403;BME280;18039;52.188;21.024;2023-05-08T09:08:46;77422.06;;;-141.45;48.38
31403;BME280;18039;52.188;21.024;2023-05-08T09:11:13;77416.00;;;-141.45;49.00
31403;BME280;18039;52.188;21.024;2023-05-08T09:13:41;77407.88;;;-141.45;48.83
31403;BME280;18039;52.188;21.024;2023-05-08T09:16:08;77395.72;;;-141.45;49.30
31403;BME280;18039;52.188;21.024;2023-05-08T09:18:36;77395.72;;;-141.45;46.36
31403;BME280;18039;52.188;21.024;2023-05-08T09:21:05;77403.84;;;-141.45;46.01
31403;BME280;18039;52.188;21.024;2023-05-08T09:23:34;77411.94;;;-141.45;46.51
31403;BME280;18039;52.188;21.024;2023-05-08T09:26:02;77424.09;;;-141.45;46.12
31403;BME280;18039;52.188;21.024;2023-05-08T09:28:29;77440.31;;;-141.45;46.02
31403;BME280;18039;52.188;21.024;2023-05-08T09:30:58;77444.38;;;-141.45;47.03
31403;BME280;18039;52.188;21.024;2023-05-08T09:33:27;77444.38;;;-141.45;47.87
31403;BME280;18039;52.188;21.024;2023-05-08T09:35:55;77422.06;;;-141.45;48.24
31403;BME280;18039;52.188;21.024;2023-05-08T09:38:36;77391.66;;;-141.45;46.21
31403;BME280;18039;52.188;21.024;2023-05-08T09:41:12;77387.59;;;-141.45;46.50
31403;BME280;18039;52.188;21.024;2023-05-08T09:43:43;77381.53;;;-141.45;46.31
31403;BME280;18039;52.188;21.024;2023-05-08T09:46:24;77385.59;;;-141.45;45.02
31403;BME280;18039;52.188;21.024;2023-05-08T09:48:53;77391.66;;;-141.45;44.15
31403;BME280;18039;52.188;21.024;2023-05-08T09:51:21;77397.75;;;-141.45;44.03
31403;BME280;18039;52.188;21.024;2023-05-08T09:53:53;77391.66;;;-141.45;44.13
31403;BME280;18039;52.188;21.024;2023-05-08T09:56:35;77383.56;;;-141.45;42.97
31403;BME280;18039;52.188;21.024;2023-05-08T09:59:05;77371.38;;;-141.45;43.46
31403;BME280;18039;52.188;21.024;2023-05-08T10:01:47;77355.16;;;-141.45;43.43
31403;BME280;18039;52.188;21.024;2023-05-08T10:04:15;77322.72;;;-141.45;43.68
31403;BME280;18039;52.188;21.024;2023-05-08T10:06:43;77318.66;;;-141.45;43.10
31403;BME280;18039;52.188;21.024;2023-05-08T10:09:12;77294.34;;;-141.45;43.20
31403;BME280;18039;52.188;21.024;2023-05-08T10:11:48;77245.69;;;-141.45;43.15
31403;BME280;18039;52.188;21.024;2023-05-08T10:14:19;77223.38;;;-141.45;42.67
31403;BME280;18039;52.188;21.024;2023-05-08T10:16:48;77209.19;;;-141.45;41.80
31403;BME280;18039;52.188;21.024;2023-05-08T10:19:18;77199.06;;;-141.45;40.94
31403;BME280;18039;52.188;21.024;2023-05-08T10:21:56;77172.69;;;-141.45;42.23
31403;BME280;18039;52.188;21.024;2023-05-08T10:24:31;77168.63;;;-141.45;40.88
31403;BME280;18039;52.188;21.024;2023-05-08T10:27:19;77136.19;;;-141.45;40.30
31403;BME280;18039;52.188;21.024;2023-05-08T10:29:55;77124.03;;;-141.45;39.95
31403;BME280;18039;52.188;21.024;2023-05-08T10:32:27;77095.66;;;-141.45;40.18
31403;BME280;18039;52.188;21.024;2023-05-08T10:34:58;77105.78;;;-141.45;39.81
31403;BME280;18039;52.188;21.024;2023-05-08T10:37:28;77113.91;;;-141.45;40.81
31403;BME280;18039;52.188;21.024;2023-05-08T10:39:56;77093.63;;;-141.45;41.54
31403;BME280;18039;52.188;21.024;2023-05-08T10:42:25;77095.66;;;-141.45;38.94
31403;BME280;18039;52.188;21.024;2023-05-08T10:44:54;77087.53;;;-141.45;39.40
31403;BME280;18039;52.188;21.024;2023-05-08T10:50:50;77089.56;;;-141.45;39.20
31403;BME280;18039;52.188;21.024;2023-05-08T10:56:11;77091.59;;;-141.45;38.36
31403;BME280;18039;52.188;21.024;2023-05-08T10:58:38;77085.50;;;-141.45;38.32
31403;BME280;18039;52.188;21.024;2023-05-08T11:03:44;77055.09;;;-141.45;39.29
31403;BME280;18039;52.188;21.024;2023-05-08T11:06:13;77018.63;;;-141.45;38.59
31403;BME280;18039;52.188;21.024;2023-05-08T11:08:47;77055.09;;;-141.45;38.32
31403;BME280;18039;52.188;21.024;2023-05-08T11:11:27;77042.94;;;-141.45;38.68
31403;BME280;18039;52.188;21.024;2023-05-08T11:19:24;77006.44;;;-141.45;36.67
31403;BME280;18039;52.188;21.024;2023-05-08T11:22:12;77010.50;;;-141.45;37.10
31403;BME280;18039;52.188;21.024;2023-05-08T11:24:47;76998.34;;;-141.45;37.00
31403;BME280;18039;52.188;21.024;2023-05-08T11:27:15;77014.56;;;-141.45;36.35
31403;BME280;18039;52.188;21.024;2023-05-08T11:29:43;77010.50;;;-141.45;37.05
31403;BME280;18039;52.188;21.024;2023-05-08T11:32:13;77002.41;;;-141.45;37.16
31403;BME280;18039;52.188;21.024;2023-05-08T11:37:29;77038.88;;;-141.45;36.92
31403;BME280;18039;52.188;21.024;2023-05-08T11:43:43;77095.66;;;-141.45;38.38
31403;BME280;18039;52.188;21.024;2023-05-08T11:46:15;77067.28;;;-141.45;39.10
31403;BME280;18039;52.188;21.024;2023-05-08T11:48:43;77055.09;;;-141.45;37.19
31403;BME280;18039;52.188;21.024;2023-05-08T11:51:12;77042.94;;;-141.45;36.75
31403;BME280;18039;52.188;21.024;2023-05-08T11:53:39;77024.69;;;-141.45;37.15
31403;BME280;18039;52.188;21.024;2023-05-08T11:56:07;77014.56;;;-141.45;37.63
31403;BME280;18039;52.188;21.024;2023-05-08T11:58:34;76988.19;;;-141.45;36.70
31403;BME280;18039;52.188;21.024;2023-05-08T12:01:02;76953.75;;;-141.45;36.62
31403;BME280;18039;52.188;21.024;2023-05-08T12:03:30;76945.63;;;-141.45;36.43
31403;BME280;18039;52.188;21.024;2023-05-08T12:05:58;76905.09;;;-141.45;36.23
31403;BME280;18039;52.188;21.024;2023-05-08T12:08:25;76913.19;;;-141.45;36.14
31403;BME280;18039;52.188;21.024;2023-05-08T12:10:56;76892.91;;;-141.45;36.36
31403;BME280;18039;52.188;21.024;2023-05-08T12:13:26;76896.97;;;-141.45;35.92
31403;BME280;18039;52.188;21.024;2023-05-08T12:15:59;76886.84;;;-141.45;35.27
31403;BME280;18039;52.188;21.024;2023-05-08T12:18:27;76876.69;;;-141.45;35.87
31403;BME280;18039;52.188;21.024;2023-05-08T12:20:57;76840.22;;;-141.45;35.56
31403;BME280;18039;52.188;21.024;2023-05-08T12:23:26;76815.88;;;-141.45;36.35
31403;BME280;18039;52.188;21.024;2023-05-08T12:25:59;76779.38;;;-141.45;35.43
31403;BME280;18039;52.188;21.024;2023-05-08T12:28:28;76746.97;;;-141.45;34.88
31403;BME280;18039;52.188;21.024;2023-05-08T12:30:56;76746.97;;;-141.45;34.25
31403;BME280;18039;52.188;21.024;2023-05-08T12:33:24;76783.44;;;-141.45;34.47
31403;BME280;18039;52.188;21.024;2023-05-08T12:35:52;76791.56;;;-141.45;33.84
31403;BME280;18039;52.188;21.024;2023-05-08T12:38:24;76811.81;;;-141.45;34.39
31403;BME280;18039;52.188;21.024;2023-05-08T12:40:52;76848.31;;;-141.45;33.87
31403;BME280;18039;52.188;21.024;2023-05-08T12:43:30;76894.94;;;-141.45;34.01
31403;BME280;18039;52.188;21.024;2023-05-08T12:45:58;76913.19;;;-141.45;33.82
31403;BME280;18039;52.188;21.024;2023-05-08T12:48:25;76917.25;;;-141.45;33.44
31403;BME280;18039;52.188;21.024;2023-05-08T12:50:53;76909.13;;;-141.45;33.51
31403;BME280;18039;52.188;21.024;2023-05-08T12:53:21;76917.25;;;-141.45;33.68
31403;BME280;18039;52.188;21.024;2023-05-08T12:55:53;76901.03;;;-141.45;33.75
31403;BME280;18039;52.188;21.024;2023-05-08T12:58:26;76913.19;;;-141.45;33.95
31403;BME280;18039;52.188;21.024;2023-05-08T13:01:06;76913.19;;;-141.45;34.12
31403;BME280;18039;52.188;21.024;2023-05-08T13:03:36;76901.03;;;-141.45;34.67
31403;BME280;18039;52.188;21.024;2023-05-08T13:06:05;76880.75;;;-141.45;34.83
31403;BME280;18039;52.188;21.024;2023-05-08T13:08:34;76864.53;;;-141.45;34.28
31403;BME280;18039;52.188;21.024;2023-05-08T13:11:03;76844.25;;;-141.45;34.22
31403;BME280;18039;52.188;21.024;2023-05-08T13:13:33;76832.09;;;-141.45;34.04
31403;BME280;18039;52.188;21.024;2023-05-08T13:16:03;76815.88;;;-141.45;33.63
31403;BME280;18039;52.188;21.024;2023-05-08T13:18:32;76817.91;;;-141.45;32.83
31403;BME280;18039;52.188;21.024;2023-05-08T13:21:00;76819.94;;;-141.45;33.63
31403;BME280;18039;52.188;21.024;2023-05-08T13:23:28;76832.09;;;-141.45;33.73
31403;BME280;18039;52.188;21.024;2023-05-08T13:25:56;76815.88;;;-141.45;33.63